createdAt,value
2022-11-24T00:00:52.448Z,87.80
2022-11-24T00:01:52.480Z,89.04
2022-11-24T00:02:51.541Z,88.66
2022-11-24T00:03:51.932Z,88.46
2022-11-24T00:04:52.436Z,88.28
2022-11-24T00:05:52.930Z,87.99
2022-11-24T00:06:50.444Z,88.66
2022-11-24T00:07:51.039Z,88.28
2022-11-24T00:08:51.433Z,88.56
2022-11-24T00:09:50.934Z,88.09
2022-11-24T00:11:14.942Z,88.18
2022-11-24T00:11:51.934Z,87.90
2022-11-24T00:12:50.938Z,87.42
2022-11-24T00:13:50.195Z,87.23
2022-11-24T00:14:50.151Z,87.61
2022-11-24T00:15:53.946Z,87.99
2022-11-24T00:16:51.033Z,87.61
2022-11-24T00:17:50.936Z,87.71
2022-11-24T00:18:49.982Z,87.61
2022-11-24T00:19:50.434Z,87.61
2022-11-24T00:20:49.920Z,87.13
2022-11-24T00:21:52.937Z,87.52
2022-11-24T00:22:53.442Z,87.61
2022-11-24T00:23:50.437Z,87.71
2022-11-24T00:24:50.936Z,87.23
2022-11-24T00:25:50.501Z,87.04
2022-11-24T00:26:49.690Z,87.04
2022-11-24T00:27:49.713Z,87.71
2022-11-24T00:28:51.936Z,87.13
2022-11-24T00:29:52.437Z,88.28
2022-11-24T00:30:53.491Z,89.04
2022-11-24T00:31:50.457Z,89.04
2022-11-24T00:32:49.496Z,89.70
2022-11-24T00:33:49.440Z,88.94
2022-11-24T00:34:50.944Z,89.42
2022-11-24T00:35:49.388Z,89.80
2022-11-24T00:36:50.938Z,89.89
2022-11-24T00:37:50.940Z,89.23
2022-11-24T00:38:51.437Z,89.42
2022-11-24T00:39:50.442Z,90.08
2022-11-24T00:40:50.943Z,89.80
2022-11-24T00:41:49.123Z,90.66
2022-11-24T00:42:52.437Z,91.13
2022-11-24T00:43:51.938Z,91.22
2022-11-24T00:44:49.945Z,91.32
2022-11-24T00:45:58.561Z,91.22
2022-11-24T00:46:49.580Z,91.61
2022-11-24T00:47:48.995Z,91.51
2022-11-24T00:48:51.565Z,91.89
2022-11-24T00:49:48.832Z,91.32
2022-11-24T00:50:48.812Z,92.46
2022-11-24T00:51:49.940Z,92.65
2022-11-24T00:52:48.713Z,92.46
2022-11-24T00:53:49.944Z,92.56
2022-11-24T00:54:49.449Z,94.18
2022-11-24T00:55:48.621Z,93.79
2022-11-24T00:56:49.441Z,93.41
2022-11-24T00:57:49.442Z,93.70
2022-11-24T00:58:49.025Z,93.89
2022-11-24T00:59:49.446Z,93.32
2022-11-24T01:00:49.442Z,94.27
2022-11-24T01:01:49.985Z,94.08
2022-11-24T01:02:48.427Z,94.08
2022-11-24T01:03:49.948Z,94.37
2022-11-24T01:04:49.024Z,94.08
2022-11-24T01:05:48.943Z,94.46
2022-11-24T01:06:51.014Z,93.98
2022-11-24T01:07:49.972Z,95.12
2022-11-24T01:08:51.949Z,94.84
2022-11-24T01:09:49.940Z,94.46
2022-11-24T01:10:49.449Z,94.08
2022-11-24T01:11:52.943Z,94.37
2022-11-24T01:12:47.975Z,94.65
2022-11-24T01:13:49.445Z,94.84
2022-11-24T01:14:49.446Z,94.84
2022-11-24T01:15:48.537Z,94.93
2022-11-24T01:16:49.443Z,94.84
2022-11-24T01:17:47.780Z,94.89
2022-11-24T01:18:50.454Z,94.89
2022-11-24T01:19:48.448Z,94.98
2022-11-24T01:20:51.442Z,94.98
2022-11-24T01:21:47.632Z,94.89
2022-11-24T01:22:49.949Z,94.98
2022-11-24T01:23:49.947Z,94.22
2022-11-24T01:24:47.539Z,94.32
2022-11-24T01:25:52.946Z,94.13
2022-11-24T01:26:47.457Z,94.13
2022-11-24T01:27:54.946Z,93.94
2022-11-24T01:28:47.908Z,93.65
2022-11-24T01:29:47.326Z,93.65
2022-11-24T01:30:48.980Z,94.03
2022-11-24T01:31:48.030Z,92.89
2022-11-24T01:32:50.040Z,93.37
2022-11-24T01:33:47.184Z,92.99
2022-11-24T01:34:49.445Z,92.32
2022-11-24T01:35:50.448Z,91.56
2022-11-24T01:36:49.450Z,92.32
2022-11-24T01:37:47.039Z,92.32
2022-11-24T01:38:47.973Z,92.03
2022-11-24T01:39:53.549Z,92.51
2022-11-24T01:40:47.447Z,94.22
2022-11-24T01:41:48.448Z,93.46
2022-11-24T01:42:46.859Z,93.46
2022-11-24T01:43:47.452Z,93.18
2022-11-24T01:44:47.520Z,93.94
2022-11-24T01:45:46.775Z,94.51
2022-11-24T01:46:54.948Z,94.13
2022-11-24T01:47:48.452Z,94.13
2022-11-24T01:48:46.620Z,94.32
2022-11-24T01:49:48.453Z,94.22
2022-11-24T01:50:47.508Z,94.89
2022-11-24T01:51:47.957Z,94.51
2022-11-24T01:52:46.491Z,94.89
2022-11-24T01:53:47.953Z,94.89
2022-11-24T01:54:46.999Z,94.89
2022-11-24T01:55:46.953Z,95.17
2022-11-24T01:56:46.386Z,95.08
2022-11-24T01:58:14.056Z,95.65
2022-11-24T01:58:46.241Z,95.27
2022-11-24T01:59:48.454Z,96.03
2022-11-24T02:01:48.501Z,96.89
2022-11-24T02:02:49.075Z,96.51
2022-11-24T02:03:46.072Z,96.79
2022-11-24T02:04:46.087Z,96.79
2022-11-24T02:05:47.458Z,97.27
2022-11-24T02:06:46.025Z,96.79
2022-11-24T02:07:46.614Z,96.60
2022-11-24T02:08:47.458Z,97.08
2022-11-24T02:09:45.842Z,97.46
2022-11-24T02:10:46.987Z,96.51
2022-11-24T02:11:47.453Z,97.27
2022-11-24T02:12:46.962Z,96.70
2022-11-24T02:13:45.699Z,97.46
2022-11-24T02:14:47.450Z,97.17
2022-11-24T02:15:46.538Z,97.36
2022-11-24T02:16:47.457Z,96.79
2022-11-24T02:17:46.455Z,97.55
2022-11-24T02:19:07.959Z,97.65
2022-11-24T02:19:46.461Z,97.65
2022-11-24T02:20:46.455Z,97.74
2022-11-24T02:21:48.959Z,97.84
2022-11-24T02:22:45.352Z,97.55
2022-11-24T02:23:49.459Z,97.55
2022-11-24T02:24:45.955Z,98.13
2022-11-24T02:25:45.244Z,97.65
2022-11-24T02:26:45.203Z,97.93
2022-11-24T02:27:49.483Z,97.74
2022-11-24T02:28:46.020Z,97.84
2022-11-24T02:29:45.965Z,98.22
2022-11-24T02:30:46.054Z,98.13
2022-11-24T02:31:48.960Z,98.79
2022-11-24T02:32:45.042Z,98.03
2022-11-24T02:33:46.458Z,97.55
2022-11-24T02:34:45.529Z,98.60
2022-11-24T02:35:44.875Z,98.32
2022-11-24T02:36:46.977Z,98.32
2022-11-24T02:37:44.818Z,97.84
2022-11-24T02:38:45.459Z,98.03
2022-11-24T02:39:44.722Z,98.13
2022-11-24T02:40:44.712Z,97.74
2022-11-24T02:41:54.587Z,98.03
2022-11-24T02:42:47.531Z,97.74
2022-11-24T02:43:45.459Z,98.32
2022-11-24T02:44:45.463Z,97.93
2022-11-24T02:45:44.501Z,98.79
2022-11-24T02:46:45.468Z,98.13
2022-11-24T02:47:45.962Z,98.32
2022-11-24T02:48:45.460Z,98.69
2022-11-24T02:49:48.460Z,98.41
2022-11-24T02:50:44.960Z,97.65
2022-11-24T02:51:44.277Z,98.69
2022-11-24T02:52:48.959Z,98.22
2022-11-24T02:53:44.223Z,98.69
2022-11-24T02:54:47.472Z,98.79
2022-11-24T02:55:45.462Z,98.32
2022-11-24T02:56:44.962Z,98.13
2022-11-24T02:57:44.087Z,98.32
2022-11-24T02:58:45.468Z,98.50
2022-11-24T02:59:44.491Z,98.22
2022-11-24T03:00:45.461Z,98.50
2022-11-24T03:01:45.545Z,98.79
2022-11-24T03:02:45.085Z,98.69
2022-11-24T03:03:43.853Z,98.41
2022-11-24T03:04:44.472Z,98.60
2022-11-24T03:05:44.471Z,98.69
2022-11-24T03:06:47.963Z,98.79
2022-11-24T03:07:44.594Z,98.69
2022-11-24T03:08:44.461Z,98.41
2022-11-24T03:09:45.971Z,98.88
2022-11-24T03:10:43.616Z,98.41
2022-11-24T03:11:45.468Z,98.41
2022-11-24T03:12:43.564Z,98.69
2022-11-24T03:13:44.964Z,98.41
2022-11-24T03:14:43.963Z,98.79
2022-11-24T03:15:44.092Z,98.41
2022-11-24T03:16:46.983Z,98.32
2022-11-24T03:17:43.965Z,98.69
2022-11-24T03:18:46.045Z,98.41
2022-11-24T03:19:43.968Z,98.69
2022-11-24T03:20:43.230Z,98.32
2022-11-24T03:21:44.970Z,99.17
2022-11-24T03:22:43.178Z,98.79
2022-11-24T03:23:45.463Z,98.60
2022-11-24T03:25:19.058Z,99.36
2022-11-24T03:25:44.472Z,99.27
2022-11-24T03:26:44.471Z,98.98
2022-11-24T03:27:44.468Z,99.17
2022-11-24T03:28:42.911Z,99.17
2022-11-24T03:29:43.503Z,98.69
2022-11-24T03:30:44.517Z,99.08
2022-11-24T03:31:43.604Z,99.27
2022-11-24T03:32:45.535Z,99.17
2022-11-24T03:33:43.472Z,99.46
2022-11-24T03:34:58.968Z,98.79
2022-11-24T03:35:46.470Z,98.88
2022-11-24T03:36:42.620Z,99.08
2022-11-24T03:37:43.473Z,98.98
2022-11-24T03:38:42.558Z,99.17
2022-11-24T03:39:42.512Z,98.79
2022-11-24T03:40:43.470Z,99.27
2022-11-24T03:41:42.425Z,99.36
2022-11-24T03:42:42.408Z,98.79
2022-11-24T03:43:44.201Z,99.08
2022-11-24T03:44:42.309Z,99.36
2022-11-24T03:45:46.690Z,99.17
2022-11-24T03:46:42.279Z,99.55
2022-11-24T03:48:04.975Z,98.60
2022-11-24T03:48:42.215Z,99.65
2022-11-24T03:49:49.472Z,99.27
2022-11-24T03:50:46.971Z,99.27
2022-11-24T03:51:43.107Z,99.55
2022-11-24T03:52:43.477Z,99.65
2022-11-24T03:53:42.001Z,99.55
2022-11-24T03:54:41.964Z,98.88
2022-11-24T03:55:43.471Z,99.46
2022-11-24T03:56:42.571Z,99.36
2022-11-24T03:57:45.491Z,99.55
2022-11-24T03:58:42.475Z,98.98
2022-11-24T03:59:42.580Z,99.27
2022-11-24T04:00:41.782Z,99.55
2022-11-24T04:01:42.566Z,99.36
2022-11-24T04:02:41.692Z,98.79
2022-11-24T04:03:56.587Z,99.41
2022-11-24T04:05:04.479Z,99.55
2022-11-24T04:05:43.972Z,99.36
2022-11-24T04:06:48.038Z,99.27
2022-11-24T04:07:41.526Z,99.55
2022-11-24T04:08:42.121Z,99.08
2022-11-24T04:09:45.974Z,99.27
2022-11-24T04:10:43.977Z,99.36
2022-11-24T04:11:44.977Z,99.65
2022-11-24T04:12:41.278Z,99.36
2022-11-24T04:13:42.976Z,99.13
2022-11-24T04:14:41.230Z,99.41
2022-11-24T04:15:42.015Z,99.08
2022-11-24T04:16:42.982Z,99.84
2022-11-24T04:17:42.129Z,99.17
2022-11-24T04:18:56.478Z,99.46
2022-11-24T04:19:41.038Z,99.22
2022-11-24T04:20:40.971Z,99.17
2022-11-24T04:21:40.982Z,99.32
2022-11-24T04:22:43.000Z,99.41
2022-11-24T04:23:40.892Z,99.32
2022-11-24T04:24:40.867Z,99.13
2022-11-24T04:25:42.480Z,99.41
2022-11-24T04:26:44.485Z,99.41
2022-11-24T04:27:40.721Z,99.32
2022-11-24T04:28:43.629Z,99.32
2022-11-24T04:29:42.979Z,99.32
2022-11-24T04:30:40.613Z,99.51
2022-11-24T04:31:40.662Z,98.94
2022-11-24T04:32:40.531Z,99.41
2022-11-24T04:33:40.487Z,99.22
2022-11-24T04:34:40.478Z,99.32
2022-11-24T04:35:41.985Z,99.41
2022-11-24T04:36:41.482Z,99.98
2022-11-24T04:37:41.482Z,99.32
2022-11-24T04:39:25.820Z,99.22
2022-11-24T04:39:41.111Z,99.22
2022-11-24T04:40:41.989Z,99.13
2022-11-24T04:41:40.243Z,99.13
2022-11-24T04:42:41.067Z,99.13
2022-11-24T04:43:41.490Z,99.13
2022-11-24T04:44:41.072Z,99.41
2022-11-24T04:45:43.483Z,99.41
2022-11-24T04:46:41.051Z,99.69
2022-11-24T04:47:42.487Z,99.60
2022-11-24T04:48:42.983Z,99.13
2022-11-24T04:49:42.481Z,99.41
2022-11-24T04:50:40.492Z,99.32
2022-11-24T04:51:41.482Z,99.89
2022-11-24T04:52:41.486Z,99.79
2022-11-24T04:53:44.983Z,99.41
2022-11-24T04:54:41.980Z,99.41
2022-11-24T04:55:40.482Z,99.22
2022-11-24T04:56:41.489Z,99.79
2022-11-24T04:57:40.498Z,99.89
2022-11-24T04:58:42.573Z,99.89
2022-11-24T04:59:39.528Z,99.89
2022-11-24T05:00:41.496Z,99.51
2022-11-24T05:01:57.562Z,99.69
2022-11-24T05:02:39.991Z,99.41
2022-11-24T05:03:39.988Z,99.22
2022-11-24T05:04:39.382Z,99.98
2022-11-24T05:05:40.085Z,99.79
2022-11-24T05:06:39.266Z,99.13
2022-11-24T05:07:39.305Z,99.98
2022-11-24T05:08:39.187Z,99.99
2022-11-24T05:09:58.871Z,99.51
2022-11-24T05:10:40.484Z,99.51
2022-11-24T05:11:39.088Z,99.69
2022-11-24T05:12:45.747Z,99.89
2022-11-24T05:13:39.988Z,99.60
2022-11-24T05:14:40.985Z,99.41
2022-11-24T05:15:38.960Z,99.99
2022-11-24T05:16:39.018Z,99.79
2022-11-24T05:17:39.991Z,99.79
2022-11-24T05:18:38.820Z,99.99
2022-11-24T05:19:38.825Z,99.69
2022-11-24T05:20:42.989Z,99.69
2022-11-24T05:21:38.721Z,99.99
2022-11-24T05:22:38.671Z,99.89
2022-11-24T05:23:41.615Z,99.89
2022-11-24T05:24:38.658Z,99.99
2022-11-24T05:25:40.481Z,99.60
2022-11-24T05:26:40.487Z,99.89
2022-11-24T05:27:39.990Z,99.99
2022-11-24T05:28:38.452Z,99.69
2022-11-24T05:29:39.495Z,99.98
2022-11-24T05:30:39.492Z,99.79
2022-11-24T05:31:39.202Z,99.60
2022-11-24T05:32:38.994Z,99.98
2022-11-24T05:33:39.995Z,99.89
2022-11-24T05:34:38.294Z,99.22
2022-11-24T05:35:56.992Z,98.74
2022-11-24T05:36:38.158Z,98.50
2022-11-24T05:37:59.155Z,98.03
2022-11-24T05:38:39.100Z,97.65
2022-11-24T05:39:38.078Z,98.50
2022-11-24T05:41:13.684Z,97.36
2022-11-24T05:41:38.027Z,96.60
2022-11-24T05:42:43.361Z,96.41
2022-11-24T05:43:37.898Z,96.79
2022-11-24T05:44:38.492Z,95.65
2022-11-24T05:45:39.999Z,94.79
2022-11-24T05:46:40.057Z,94.79
2022-11-24T05:47:39.505Z,94.89
2022-11-24T05:48:38.994Z,94.22
2022-11-24T05:49:38.499Z,94.03
2022-11-24T05:50:38.581Z,94.98
2022-11-24T05:51:38.501Z,94.13
2022-11-24T05:52:37.554Z,94.13
2022-11-24T05:53:39.006Z,93.94
2022-11-24T05:54:39.492Z,93.37
2022-11-24T05:55:38.500Z,92.99
2022-11-24T05:56:37.421Z,93.08
2022-11-24T05:57:37.413Z,92.13
2022-11-24T05:58:37.331Z,92.03
2022-11-24T05:59:38.054Z,91.75
2022-11-24T06:00:38.495Z,91.84
2022-11-24T06:01:40.260Z,91.37
2022-11-24T06:02:38.266Z,91.46
2022-11-24T06:03:37.160Z,92.03
2022-11-24T06:04:40.074Z,91.17
2022-11-24T06:05:37.106Z,91.08
2022-11-24T06:06:37.033Z,90.42
2022-11-24T06:07:37.103Z,90.61
2022-11-24T06:08:46.499Z,90.70
2022-11-24T06:09:36.965Z,91.27
2022-11-24T06:10:37.497Z,91.61
2022-11-24T06:11:37.632Z,91.61
2022-11-24T06:12:36.810Z,91.08
2022-11-24T06:13:38.064Z,90.22
2022-11-24T06:14:36.742Z,89.94
2022-11-24T06:15:36.706Z,89.94
2022-11-24T06:16:37.617Z,89.84
2022-11-24T06:17:59.999Z,89.32
2022-11-24T06:18:39.006Z,89.51
2022-11-24T06:19:41.730Z,89.04
2022-11-24T06:20:37.999Z,88.46
2022-11-24T06:21:36.471Z,89.14
2022-11-24T06:22:44.006Z,89.14
2022-11-24T06:23:37.499Z,89.23
2022-11-24T06:24:38.025Z,89.23
2022-11-24T06:25:36.998Z,89.32
2022-11-24T06:26:41.503Z,89.32
2022-11-24T06:27:38.500Z,89.89
2022-11-24T06:28:36.224Z,90.84
2022-11-24T06:29:38.500Z,90.56
2022-11-24T06:30:36.159Z,91.61
2022-11-24T06:31:36.207Z,91.80
2022-11-24T06:32:36.066Z,94.84
2022-11-24T06:33:36.100Z,92.94
2022-11-24T06:34:36.354Z,93.23
2022-11-24T06:35:38.566Z,92.84
2022-11-24T06:36:36.572Z,93.70
2022-11-24T06:37:35.873Z,93.41
2022-11-24T06:38:38.005Z,93.23
2022-11-24T06:39:36.506Z,93.13
2022-11-24T06:40:35.779Z,93.41
2022-11-24T06:41:40.018Z,93.13
2022-11-24T06:42:35.703Z,93.98
2022-11-24T06:43:37.002Z,93.41
2022-11-24T06:44:38.503Z,93.41
2022-11-24T06:45:38.142Z,93.60
2022-11-24T06:46:35.610Z,93.89
2022-11-24T06:47:36.500Z,94.18
2022-11-24T06:48:36.507Z,93.70
2022-11-24T06:49:37.007Z,94.08
2022-11-24T06:50:37.026Z,93.98
2022-11-24T06:51:35.357Z,94.37
2022-11-24T06:52:59.504Z,94.84
2022-11-24T06:53:39.501Z,94.65
2022-11-24T06:54:36.384Z,94.93
2022-11-24T06:55:36.088Z,94.93
2022-11-24T06:56:38.078Z,94.56
2022-11-24T06:57:36.082Z,94.84
2022-11-24T06:58:36.054Z,94.93
2022-11-24T06:59:38.508Z,94.74
2022-11-24T07:00:36.004Z,95.70
2022-11-24T07:01:35.037Z,94.93
2022-11-24T07:02:34.975Z,94.84
2022-11-24T07:03:35.576Z,95.12
2022-11-24T07:04:36.771Z,95.70
2022-11-24T07:05:37.004Z,95.03
2022-11-24T07:06:38.509Z,95.79
2022-11-24T07:07:35.565Z,95.79
2022-11-24T07:08:35.510Z,95.41
2022-11-24T07:09:35.521Z,95.22
2022-11-24T07:10:35.514Z,95.51
2022-11-24T07:11:35.511Z,95.79
2022-11-24T07:12:34.596Z,95.51
2022-11-24T07:13:38.513Z,95.32
2022-11-24T07:14:38.526Z,95.89
2022-11-24T07:15:35.016Z,94.93
2022-11-24T07:16:35.067Z,94.84
2022-11-24T07:17:34.375Z,94.84
2022-11-24T07:18:34.319Z,94.65
2022-11-24T07:19:34.347Z,94.65
2022-11-24T07:20:34.270Z,94.65
2022-11-24T07:21:34.217Z,94.74
2022-11-24T07:22:36.012Z,94.84
2022-11-24T07:23:35.009Z,94.84
2022-11-24T07:24:34.443Z,94.65
2022-11-24T07:25:34.087Z,94.74
2022-11-24T07:26:35.007Z,94.65
2022-11-24T07:27:34.607Z,94.74
2022-11-24T07:28:35.009Z,94.56
2022-11-24T07:29:33.916Z,94.65
2022-11-24T07:30:33.924Z,94.93
2022-11-24T07:31:35.614Z,95.60
2022-11-24T07:32:33.821Z,95.79
2022-11-24T07:33:33.776Z,96.55
2022-11-24T07:34:34.126Z,95.51
2022-11-24T07:35:33.699Z,96.17
2022-11-24T07:36:34.647Z,95.79
2022-11-24T07:37:33.630Z,96.55
2022-11-24T07:38:35.011Z,95.79
2022-11-24T07:39:33.549Z,95.79
2022-11-24T07:40:33.512Z,96.08
2022-11-24T07:41:33.480Z,95.79
2022-11-24T07:42:34.513Z,96.65
2022-11-24T07:43:34.110Z,96.36
2022-11-24T07:44:33.659Z,96.94
2022-11-24T07:45:33.396Z,95.89
2022-11-24T07:46:33.308Z,95.51
2022-11-24T07:47:33.260Z,96.74
2022-11-24T07:48:33.208Z,96.55
2022-11-24T07:49:34.013Z,96.26
2022-11-24T07:50:33.129Z,96.55
2022-11-24T07:51:41.019Z,96.65
2022-11-24T07:52:33.082Z,96.46
2022-11-24T07:53:33.604Z,96.55
2022-11-24T07:54:33.413Z,96.55
2022-11-24T07:55:34.016Z,96.46
2022-11-24T07:56:39.673Z,96.36
2022-11-24T07:57:39.626Z,96.36
2022-11-24T07:58:33.414Z,96.36
2022-11-24T07:59:32.794Z,96.36
2022-11-24T08:00:32.763Z,96.36
2022-11-24T08:01:33.607Z,96.08
2022-11-24T08:02:34.523Z,96.55
2022-11-24T08:03:33.546Z,95.70
2022-11-24T08:04:33.893Z,96.08
2022-11-24T08:05:32.569Z,95.60
2022-11-24T08:06:39.620Z,96.17
2022-11-24T08:07:33.118Z,95.51
2022-11-24T08:08:33.022Z,95.60
2022-11-24T08:09:33.016Z,96.36
2022-11-24T08:10:32.378Z,95.79
2022-11-24T08:11:36.023Z,95.98
2022-11-24T08:12:32.317Z,96.55
2022-11-24T08:13:32.270Z,95.56
2022-11-24T08:14:34.280Z,95.27
2022-11-24T08:15:35.099Z,95.94
2022-11-24T08:16:39.156Z,96.03
2022-11-24T08:17:33.146Z,96.51
2022-11-24T08:18:38.606Z,96.89
2022-11-24T08:19:33.035Z,96.98
2022-11-24T08:20:33.524Z,96.70
2022-11-24T08:21:32.523Z,96.89
2022-11-24T08:22:32.526Z,96.22
2022-11-24T08:23:32.527Z,96.41
2022-11-24T08:24:32.199Z,97.17
2022-11-24T08:25:32.520Z,97.17
2022-11-24T08:26:33.695Z,96.98
2022-11-24T08:27:32.580Z,97.08
2022-11-24T08:28:32.528Z,97.08
2022-11-24T08:29:34.649Z,97.74
2022-11-24T08:30:31.639Z,97.55
2022-11-24T08:31:33.007Z,97.27
2022-11-24T08:32:32.527Z,97.46
2022-11-24T08:33:32.529Z,97.17
2022-11-24T08:34:32.254Z,96.89
2022-11-24T08:35:31.434Z,97.55
2022-11-24T08:36:34.094Z,97.46
2022-11-24T08:37:32.027Z,97.84
2022-11-24T08:38:31.314Z,98.08
2022-11-24T08:39:31.327Z,98.32
2022-11-24T08:40:31.245Z,97.55
2022-11-24T08:41:55.099Z,97.93
2022-11-24T08:42:33.076Z,98.22
2022-11-24T08:43:32.524Z,97.55
2022-11-24T08:44:32.600Z,98.03
2022-11-24T08:45:34.289Z,97.74
2022-11-24T08:46:31.084Z,97.55
2022-11-24T08:47:32.075Z,98.69
2022-11-24T08:48:30.954Z,98.79
2022-11-24T08:49:31.528Z,99.08
2022-11-24T08:50:30.993Z,98.55
2022-11-24T08:51:30.848Z,98.88
2022-11-24T08:52:32.529Z,98.84
2022-11-24T08:53:30.795Z,98.36
2022-11-24T08:54:30.719Z,98.65
2022-11-24T08:55:30.684Z,98.84
2022-11-24T08:56:30.663Z,98.94
2022-11-24T08:57:32.023Z,98.36
2022-11-24T08:58:30.584Z,99.51
2022-11-24T08:59:31.590Z,99.32
2022-11-24T09:00:30.501Z,98.94
2022-11-24T09:01:34.647Z,99.41
2022-11-24T09:02:31.028Z,99.32
2022-11-24T09:03:31.524Z,99.13
2022-11-24T09:04:33.807Z,99.13
2022-11-24T09:05:51.108Z,99.69
2022-11-24T09:06:31.148Z,99.60
2022-11-24T09:07:31.579Z,99.69
2022-11-24T09:08:30.203Z,99.41
2022-11-24T09:09:30.189Z,99.32
2022-11-24T09:10:30.139Z,99.32
2022-11-24T09:11:31.025Z,99.51
2022-11-24T09:12:32.625Z,99.41
2022-11-24T09:13:31.540Z,98.94
2022-11-24T09:14:30.000Z,99.60
2022-11-24T09:15:30.528Z,99.41
2022-11-24T09:16:32.097Z,99.41
2022-11-24T09:17:30.538Z,99.41
2022-11-24T09:18:31.530Z,99.13
2022-11-24T09:19:30.533Z,99.60
2022-11-24T09:20:33.031Z,99.69
2022-11-24T09:21:33.042Z,99.89
2022-11-24T09:22:31.531Z,99.69
2022-11-24T09:23:30.629Z,99.79
2022-11-24T09:24:29.609Z,99.18
2022-11-24T09:25:31.037Z,99.79
2022-11-24T09:26:29.540Z,99.79
2022-11-24T09:27:31.043Z,99.46
2022-11-24T09:28:30.098Z,99.75
2022-11-24T09:29:29.461Z,99.69
2022-11-24T09:30:29.566Z,99.41
2022-11-24T09:31:30.633Z,99.84
2022-11-24T09:32:31.035Z,99.75
2022-11-24T09:33:29.298Z,99.89
2022-11-24T09:34:29.238Z,99.99
2022-11-24T09:35:45.035Z,99.18
2022-11-24T09:36:31.043Z,99.99
2022-11-24T09:37:32.913Z,99.84
2022-11-24T09:38:29.101Z,99.75
2022-11-24T09:39:29.075Z,99.84
2022-11-24T09:40:29.062Z,99.99
2022-11-24T09:41:30.039Z,99.46
2022-11-24T09:42:32.538Z,99.75
2022-11-24T09:43:28.947Z,99.65
2022-11-24T09:44:28.870Z,99.94
2022-11-24T09:45:57.036Z,99.99
2022-11-24T09:46:30.589Z,99.46
2022-11-24T09:47:31.040Z,99.70
2022-11-24T09:48:28.728Z,99.60
2022-11-24T09:49:32.699Z,99.99
2022-11-24T09:50:30.044Z,99.99
2022-11-24T09:51:30.576Z,99.37
2022-11-24T09:52:29.537Z,99.32
2022-11-24T09:53:28.601Z,99.60
2022-11-24T09:54:29.035Z,99.41
2022-11-24T09:55:32.035Z,99.41
2022-11-24T09:56:29.037Z,99.41
2022-11-24T09:57:34.138Z,99.70
2022-11-24T09:58:30.548Z,99.80
2022-11-24T09:59:29.040Z,99.32
2022-11-24T10:00:28.272Z,99.41
2022-11-24T10:01:28.257Z,99.04
2022-11-24T10:02:28.221Z,99.32
2022-11-24T10:03:28.223Z,99.60
2022-11-24T10:04:28.391Z,99.99
2022-11-24T10:05:28.089Z,98.94
2022-11-24T10:06:28.085Z,99.41
2022-11-24T10:07:28.065Z,99.32
2022-11-24T10:08:27.997Z,99.04
2022-11-24T10:09:27.941Z,99.75
2022-11-24T10:10:27.902Z,99.41
2022-11-24T10:11:27.865Z,98.90
2022-11-24T10:12:27.840Z,99.27
2022-11-24T10:13:27.811Z,99.18
2022-11-24T10:14:27.757Z,99.66
2022-11-24T10:15:27.872Z,98.85
2022-11-24T10:16:27.771Z,99.08
2022-11-24T10:17:27.653Z,98.85
2022-11-24T10:18:27.617Z,98.90
2022-11-24T10:19:36.259Z,99.27
2022-11-24T10:20:27.539Z,99.08
2022-11-24T10:21:27.507Z,98.90
2022-11-24T10:22:27.527Z,99.66
2022-11-24T10:23:27.527Z,98.70
2022-11-24T10:24:27.396Z,98.51
2022-11-24T10:25:27.372Z,98.51
2022-11-24T10:26:27.350Z,99.27
2022-11-24T10:27:27.286Z,99.46
2022-11-24T10:28:27.260Z,98.99
2022-11-24T10:29:27.215Z,98.61
2022-11-24T10:30:27.174Z,98.13
2022-11-24T10:31:27.219Z,98.51
2022-11-24T10:32:27.102Z,99.13
2022-11-24T10:33:30.647Z,99.13
2022-11-24T10:34:27.038Z,99.13
2022-11-24T10:35:27.003Z,98.27
2022-11-24T10:36:26.958Z,98.27
2022-11-24T10:37:26.929Z,98.37
2022-11-24T10:38:26.884Z,98.18
2022-11-24T10:39:26.870Z,98.18
2022-11-24T10:40:55.324Z,98.27
2022-11-24T10:41:26.781Z,98.18
2022-11-24T10:42:26.741Z,98.08
2022-11-24T10:43:26.710Z,98.27
2022-11-24T10:44:26.672Z,97.66
2022-11-24T10:45:26.634Z,97.75
2022-11-24T10:46:26.667Z,97.75
2022-11-24T10:47:26.573Z,96.89
2022-11-24T10:48:26.527Z,97.13
2022-11-24T10:49:26.492Z,97.03
2022-11-24T10:50:26.461Z,97.51
2022-11-24T10:51:26.464Z,97.32
2022-11-24T10:52:26.426Z,97.99
2022-11-24T10:53:26.357Z,97.18
2022-11-24T10:54:26.409Z,97.27
2022-11-24T10:55:26.319Z,97.08
2022-11-24T10:56:26.243Z,97.56
2022-11-24T10:57:26.202Z,97.27
2022-11-24T10:58:26.178Z,97.18
2022-11-24T10:59:26.133Z,96.32
2022-11-24T11:00:26.097Z,96.27
2022-11-24T11:01:26.098Z,97.56
2022-11-24T11:02:26.151Z,97.47
2022-11-24T11:03:26.001Z,97.27
2022-11-24T11:04:25.956Z,97.37
2022-11-24T11:05:25.921Z,96.03
2022-11-24T11:06:25.889Z,96.70
2022-11-24T11:07:25.899Z,97.08
2022-11-24T11:08:25.820Z,97.08
2022-11-24T11:09:25.789Z,96.13
2022-11-24T11:10:25.792Z,97.08
2022-11-24T11:11:25.714Z,97.27
2022-11-24T11:12:43.536Z,96.66
2022-11-24T11:13:25.642Z,97.03
2022-11-24T11:14:25.595Z,95.65
2022-11-24T11:15:25.565Z,96.37
2022-11-24T11:16:25.594Z,96.27
2022-11-24T11:17:25.495Z,95.65
2022-11-24T11:18:25.461Z,95.65
2022-11-24T11:19:47.782Z,96.22
2022-11-24T11:20:25.390Z,96.32
2022-11-24T11:21:25.356Z,96.42
2022-11-24T11:22:25.361Z,96.56
2022-11-24T11:23:25.284Z,95.89
2022-11-24T11:24:25.248Z,96.56
2022-11-24T11:25:25.222Z,96.37
2022-11-24T11:26:25.178Z,96.17
2022-11-24T11:27:25.151Z,95.79
2022-11-24T11:28:25.159Z,95.41
2022-11-24T11:31:25.002Z,94.84
2022-11-24T11:34:35.498Z,95.61
2022-11-24T11:35:24.860Z,95.41
2022-11-24T11:36:24.826Z,95.56
2022-11-24T11:37:24.802Z,94.93
2022-11-24T11:38:24.756Z,94.84
2022-11-24T11:39:24.718Z,95.27
2022-11-24T11:40:24.683Z,95.65
2022-11-24T11:41:24.652Z,94.89
2022-11-24T11:42:53.505Z,94.60
2022-11-24T11:43:24.589Z,94.12
2022-11-24T11:44:24.588Z,94.07
2022-11-24T11:45:24.571Z,94.41
2022-11-24T11:46:24.554Z,94.12
2022-11-24T11:47:24.443Z,93.36
2022-11-24T11:48:24.417Z,94.51
2022-11-24T11:49:24.371Z,93.84
2022-11-24T11:50:24.393Z,93.55
2022-11-24T11:51:24.671Z,93.98
2022-11-24T11:52:24.268Z,93.26
2022-11-24T11:53:24.239Z,93.45
2022-11-24T11:54:24.196Z,93.84
2022-11-24T11:55:24.164Z,94.31
2022-11-24T11:56:24.130Z,94.70
2022-11-24T11:57:24.095Z,94.27
2022-11-24T11:58:24.071Z,94.51
2022-11-24T11:59:24.036Z,94.70
2022-11-24T12:00:23.996Z,94.89
2022-11-24T12:01:23.955Z,95.61
2022-11-24T12:02:24.100Z,94.60
2022-11-24T12:03:24.063Z,94.89
2022-11-24T12:04:23.854Z,94.41
2022-11-24T12:05:23.817Z,94.89
2022-11-24T12:06:23.779Z,94.70
2022-11-24T12:07:23.770Z,94.70
2022-11-24T12:08:23.801Z,93.84
2022-11-24T12:09:23.679Z,94.02
2022-11-24T12:10:23.659Z,94.12
2022-11-24T12:11:23.657Z,94.70
2022-11-24T12:12:23.575Z,93.84
2022-11-24T12:13:23.537Z,93.74
2022-11-24T12:14:23.499Z,94.89
2022-11-24T12:15:23.475Z,94.07
2022-11-24T12:16:23.522Z,93.98
2022-11-24T12:17:23.402Z,94.60
2022-11-24T12:18:49.020Z,94.55
2022-11-24T12:19:23.328Z,94.17
2022-11-24T12:20:23.292Z,93.98
2022-11-24T12:21:26.591Z,94.26
2022-11-24T12:22:23.229Z,93.60
2022-11-24T12:23:23.195Z,92.93
2022-11-24T12:24:23.186Z,92.45
2022-11-24T12:25:23.127Z,92.54
2022-11-24T12:26:23.091Z,92.45
2022-11-24T12:27:23.524Z,92.93
2022-11-24T12:28:23.037Z,93.60
2022-11-24T12:29:22.989Z,92.25
2022-11-24T12:30:22.950Z,92.45
2022-11-24T12:31:23.065Z,93.12
2022-11-24T12:32:22.878Z,92.45
2022-11-24T12:33:22.853Z,92.07
2022-11-24T12:34:22.814Z,92.64
2022-11-24T12:35:22.782Z,92.25
2022-11-24T12:36:22.772Z,91.97
2022-11-24T12:37:23.635Z,92.11
2022-11-24T12:38:22.692Z,91.88
2022-11-24T12:39:22.639Z,92.16
2022-11-24T12:40:22.604Z,91.35
2022-11-24T12:42:22.533Z,91.25
2022-11-24T12:43:22.503Z,90.63
2022-11-24T12:44:22.474Z,91.20
2022-11-24T12:45:22.439Z,91.16
2022-11-24T12:46:22.452Z,90.96
2022-11-24T12:47:22.370Z,91.16
2022-11-24T12:48:22.329Z,90.39
2022-11-24T12:49:22.303Z,90.30
2022-11-24T12:50:22.331Z,90.77
2022-11-24T12:51:22.234Z,91.16
2022-11-24T12:52:22.201Z,90.96
2022-11-24T12:53:22.166Z,91.30
2022-11-24T12:54:22.127Z,90.53
2022-11-24T12:55:22.096Z,90.24
2022-11-24T12:56:22.062Z,89.43
2022-11-24T12:57:22.128Z,90.72
2022-11-24T12:58:21.999Z,90.24